createdAt,value
2022-10-18T00:04:08.756Z,99154.44
2022-10-18T00:09:10.888Z,99154.38
2022-10-18T00:14:12.913Z,99162.59
2022-10-18T00:19:14.992Z,99175.16
2022-10-18T00:24:17.082Z,99165.31
2022-10-18T00:29:18.902Z,99168.38
2022-10-18T00:34:20.697Z,99175.41
2022-10-18T00:39:23.093Z,99174.59
2022-10-18T00:44:24.814Z,99173.78
2022-10-18T00:49:43.878Z,99159.69
2022-10-18T00:54:47.448Z,99155.75
2022-10-18T00:59:49.403Z,99158.13
2022-10-18T01:04:51.247Z,99153.06
2022-10-18T01:10:14.245Z,99160.91
2022-10-18T01:15:32.125Z,99148.75
2022-10-18T01:21:09.219Z,99151.13
2022-10-18T01:26:35.728Z,99155.03
2022-10-18T01:31:48.082Z,99157.78
2022-10-18T01:36:55.623Z,99157.41
2022-10-18T01:42:00.999Z,99154.69
2022-10-18T01:47:05.552Z,99155.47
2022-10-18T01:52:09.337Z,99169.22
2022-10-18T01:57:24.615Z,99161.38
2022-10-18T02:02:48.763Z,99156.63
2022-10-18T02:08:12.359Z,99163.66
2022-10-18T02:13:22.725Z,99156.59
2022-10-18T02:18:35.509Z,99156.22
2022-10-18T02:23:39.042Z,99160.53
2022-10-18T02:28:41.364Z,99157.41
2022-10-18T02:34:21.714Z,99150.34
2022-10-18T02:39:30.548Z,99165.28
2022-10-18T02:44:33.744Z,99167.59
2022-10-18T02:49:35.567Z,99169.53
2022-10-18T02:54:37.434Z,99163.63
2022-10-18T02:59:39.240Z,99168.69
2022-10-18T03:04:41.071Z,99172.56
2022-10-18T03:09:43.020Z,99169.78
2022-10-18T03:14:44.877Z,99170.50
2022-10-18T03:19:46.671Z,99172.78
2022-10-18T03:24:48.506Z,99182.13
2022-10-18T03:29:50.294Z,99172.72
2022-10-18T03:34:52.076Z,99171.13
2022-10-18T03:39:53.890Z,99174.59
2022-10-18T03:44:55.694Z,99181.25
2022-10-18T03:49:58.320Z,99174.22
2022-10-18T03:55:00.151Z,99174.94
2022-10-18T04:00:02.180Z,99161.22
2022-10-18T04:05:14.250Z,99160.06
2022-10-18T04:10:16.636Z,99157.75
2022-10-18T04:15:18.685Z,99159.38
2022-10-18T04:20:20.557Z,99157.78
2022-10-18T04:25:22.527Z,99164.53
2022-10-18T04:30:24.354Z,99163.00
2022-10-18T04:35:27.840Z,99172.88
2022-10-18T04:40:29.627Z,99169.00
2022-10-18T04:45:31.456Z,99173.34
2022-10-18T04:50:33.390Z,99180.00
2022-10-18T04:55:35.493Z,99177.53
2022-10-18T05:00:40.012Z,99173.28
2022-10-18T05:06:00.954Z,99164.28
2022-10-18T05:11:04.169Z,99158.44
2022-10-18T05:16:06.835Z,99143.94
2022-10-18T05:21:08.749Z,99163.16
2022-10-18T05:26:10.546Z,99162.75
2022-10-18T05:31:12.549Z,99160.00
2022-10-18T05:36:14.384Z,99154.13
2022-10-18T05:41:16.188Z,99149.81
2022-10-18T05:46:18.020Z,99144.72
2022-10-18T05:51:19.854Z,99141.16
2022-10-18T05:56:21.777Z,99141.53
2022-10-18T06:01:23.721Z,99116.50
2022-10-18T06:06:25.516Z,99110.22
2022-10-18T06:11:27.308Z,99118.81
2022-10-18T06:16:32.370Z,99109.84
2022-10-18T06:21:34.319Z,99135.34
2022-10-18T06:26:36.100Z,99126.72
2022-10-18T06:31:37.932Z,99111.47
2022-10-18T06:36:39.706Z,99112.66
2022-10-18T06:41:41.561Z,99122.88
2022-10-18T06:46:54.167Z,99133.41
2022-10-18T06:51:56.136Z,99133.41
2022-10-18T06:56:58.358Z,99129.88
2022-10-18T07:02:00.252Z,99109.91
2022-10-18T07:07:02.160Z,99121.72
2022-10-18T07:12:04.290Z,99111.94
2022-10-18T07:17:06.131Z,99121.00
2022-10-18T07:22:07.988Z,99120.22
2022-10-18T07:27:09.800Z,99134.00
2022-10-18T07:32:11.586Z,99110.84
2022-10-18T07:37:13.367Z,99127.75
2022-10-18T07:42:15.197Z,99132.44
2022-10-18T07:47:17.130Z,99126.59
2022-10-18T07:52:18.916Z,99119.16
2022-10-18T07:57:21.270Z,99109.34
2022-10-18T08:02:24.760Z,99111.38
2022-10-18T08:07:26.824Z,99111.38
2022-10-18T08:12:28.633Z,99123.19
2022-10-18T08:17:30.772Z,99126.72
2022-10-18T08:22:32.902Z,99105.91
2022-10-18T08:27:35.080Z,99101.19
2022-10-18T08:32:37.219Z,99082.31
2022-10-18T08:37:40.393Z,99065.06
2022-10-18T08:42:44.970Z,99061.13
2022-10-18T08:47:49.974Z,99051.72
2022-10-18T08:53:22.447Z,99057.19
2022-10-18T08:58:31.676Z,99050.91
2022-10-18T09:04:08.834Z,99057.22
2022-10-18T09:09:16.614Z,99053.28
2022-10-18T09:15:15.052Z,99034.41
2022-10-18T09:20:23.213Z,99034.41
2022-10-18T09:25:40.756Z,99032.84
2022-10-18T09:30:57.186Z,99027.34
2022-10-18T09:36:03.861Z,99015.53
2022-10-18T09:41:13.970Z,99014.75
2022-10-18T09:46:18.261Z,99013.19
2022-10-18T09:51:24.129Z,99006.09
2022-10-18T09:56:48.194Z,99002.97
2022-10-18T10:01:50.009Z,99006.09
2022-10-18T10:06:53.968Z,98988.81
2022-10-18T10:11:56.891Z,98995.06
2022-10-18T10:17:02.622Z,98997.44
2022-10-18T10:22:04.418Z,98985.22
2022-10-18T10:27:15.301Z,98984.78
2022-10-18T10:32:19.840Z,98982.38
2022-10-18T10:37:26.168Z,98983.16
2022-10-18T10:42:28.077Z,98992.59
2022-10-18T10:47:34.352Z,99006.75
2022-10-18T10:52:40.286Z,99062.66
2022-10-18T10:57:44.857Z,99080.78
2022-10-18T11:02:59.236Z,99102.75
2022-10-18T11:08:11.365Z,99085.38
2022-10-18T11:13:23.825Z,99088.88
2022-10-18T11:18:29.863Z,99090.81
2022-10-18T11:23:33.424Z,99088.47
2022-10-18T11:28:56.316Z,99090.03
2022-10-18T11:34:17.649Z,99095.13
2022-10-18T11:39:53.520Z,99101.75
2022-10-18T11:45:04.459Z,99110.38
2022-10-18T11:50:26.898Z,99105.63
2022-10-18T11:55:44.059Z,99104.88
2022-10-18T12:01:01.454Z,99115.03
2022-10-18T12:06:22.329Z,99117.41
2022-10-18T12:11:30.864Z,99124.09
2022-10-18T12:17:20.182Z,99120.50
2022-10-18T12:22:33.487Z,99132.25
2022-10-18T12:27:52.050Z,99136.56
2022-10-18T12:33:26.521Z,99141.28
2022-10-18T12:38:32.015Z,99143.69
2022-10-18T12:43:38.052Z,99114.66
2022-10-18T12:48:43.163Z,99103.66
2022-10-18T12:53:47.901Z,99115.06
2022-10-18T12:58:49.707Z,99130.00
2022-10-18T13:03:55.406Z,99145.63
2022-10-18T13:09:21.449Z,99157.00
2022-10-18T13:14:49.376Z,99158.94
2022-10-18T13:20:27.322Z,99159.72
2022-10-18T13:25:35.272Z,99147.16
2022-10-18T13:31:10.722Z,99163.66
2022-10-18T13:36:22.821Z,99162.09
2022-10-18T13:41:56.713Z,99165.25
2022-10-18T13:46:59.685Z,99157.41
2022-10-18T13:52:29.474Z,99157.44
2022-10-18T13:58:03.566Z,99142.53
2022-10-18T14:03:55.555Z,99141.63
2022-10-18T14:09:25.418Z,99136.28
2022-10-18T14:14:36.795Z,99132.41
2022-10-18T14:19:43.048Z,99136.16
2022-10-18T14:24:48.914Z,99116.63
2022-10-18T14:30:07.251Z,99127.47
2022-10-18T14:35:33.247Z,99126.75
2022-10-18T14:40:37.964Z,99142.00
2022-10-18T14:45:40.904Z,99150.22
2022-10-18T14:50:46.276Z,99166.03
2022-10-18T14:56:04.493Z,99168.50
2022-10-18T15:01:06.458Z,99182.94
2022-10-18T15:06:08.632Z,99170.78
2022-10-18T15:11:14.485Z,99166.84
2022-10-18T15:16:22.671Z,99162.53
2022-10-18T15:21:24.726Z,99164.09
2022-10-18T15:26:30.176Z,99160.28
2022-10-18T15:31:35.098Z,99161.00
2022-10-18T15:36:37.628Z,99161.69
2022-10-18T15:41:50.407Z,99164.78
2022-10-18T15:46:55.873Z,99169.50
2022-10-18T15:52:03.711Z,99176.47
2022-10-18T15:57:10.450Z,99181.97
2022-10-18T16:02:14.535Z,99182.75
2022-10-18T16:07:16.417Z,99198.44
2022-10-18T16:12:18.307Z,99199.06
2022-10-18T16:17:20.143Z,99204.94
2022-10-18T16:22:21.960Z,99210.00
2022-10-18T16:27:25.082Z,99220.91
2022-10-18T16:32:26.957Z,99216.81
2022-10-18T16:37:28.802Z,99231.50
2022-10-18T16:42:30.836Z,99234.66
2022-10-18T16:47:32.874Z,99233.00
2022-10-18T16:52:35.867Z,99229.25
2022-10-18T16:57:37.735Z,99232.44
2022-10-18T17:02:39.534Z,99237.47
2022-10-18T17:07:41.896Z,99233.91
2022-10-18T17:12:43.994Z,99233.69
2022-10-18T17:17:47.715Z,99236.38
2022-10-18T17:22:49.661Z,99236.50
2022-10-18T17:27:51.443Z,99251.84
2022-10-18T17:32:55.377Z,99251.06
2022-10-18T17:37:57.390Z,99248.63
2022-10-18T17:42:59.645Z,99239.25
2022-10-18T17:48:01.722Z,99235.66
2022-10-18T17:53:03.587Z,99237.38
2022-10-18T17:58:05.767Z,99235.59
2022-10-18T18:03:07.637Z,99241.56
2022-10-18T18:08:09.491Z,99243.94
2022-10-18T18:13:14.051Z,99246.25
2022-10-18T18:18:18.789Z,99247.78
2022-10-18T18:23:20.880Z,99252.91
2022-10-18T18:28:22.799Z,99245.31
2022-10-18T18:33:24.691Z,99252.13
2022-10-18T18:38:26.870Z,99246.75
2022-10-18T18:43:29.084Z,99249.31
2022-10-18T18:48:32.918Z,99243.53
2022-10-18T18:53:35.148Z,99250.16
2022-10-18T18:58:38.415Z,99248.69
2022-10-18T19:03:40.927Z,99239.28
2022-10-18T19:08:46.411Z,99235.16
2022-10-18T19:13:49.084Z,99237.66
2022-10-18T19:19:05.420Z,99248.75
2022-10-18T19:24:07.639Z,99247.53
2022-10-18T19:29:13.517Z,99250.31
2022-10-18T19:34:17.285Z,99256.66
2022-10-18T19:39:22.036Z,99261.56
2022-10-18T19:44:26.218Z,99261.72
2022-10-18T19:49:28.874Z,99259.66
2022-10-18T19:54:30.946Z,99267.44
2022-10-18T19:59:32.897Z,99273.66
2022-10-18T20:04:35.261Z,99267.38
2022-10-18T20:09:37.055Z,99283.75
2022-10-18T20:14:38.963Z,99283.63
2022-10-18T20:19:40.781Z,99277.19
2022-10-18T20:24:42.507Z,99273.19
2022-10-18T20:29:44.266Z,99267.88
2022-10-18T20:34:45.999Z,99261.72
2022-10-18T20:39:47.768Z,99269.94
2022-10-18T20:44:50.090Z,99274.88
2022-10-18T20:49:51.873Z,99269.00
2022-10-18T20:54:53.681Z,99261.09
2022-10-18T20:59:55.472Z,99264.16
2022-10-18T21:04:57.273Z,99282.03
2022-10-18T21:09:59.100Z,99268.56
2022-10-18T21:15:00.885Z,99272.56
2022-10-18T21:20:02.935Z,99269.88
2022-10-18T21:25:05.215Z,99263.19
2022-10-18T21:30:07.654Z,99264.84
2022-10-18T21:35:10.242Z,99252.75
2022-10-18T21:40:12.323Z,99267.50
2022-10-18T21:45:14.400Z,99267.19
2022-10-18T21:50:16.627Z,99268.56
2022-10-18T21:55:18.590Z,99265.44
2022-10-18T22:00:20.551Z,99272.56
2022-10-18T22:05:22.536Z,99277.00
2022-10-18T22:10:24.773Z,99276.78
2022-10-18T22:15:26.888Z,99271.81
2022-10-18T22:20:28.876Z,99257.22
2022-10-18T22:25:30.866Z,99243.09
2022-10-18T22:30:36.503Z,99242.47
2022-10-18T22:35:38.462Z,99257.44
2022-10-18T22:40:40.368Z,99260.56
2022-10-18T22:45:42.365Z,99262.91
2022-10-18T22:50:44.304Z,99259.31
2022-10-18T22:55:48.436Z,99251.09
2022-10-18T23:00:50.617Z,99249.00
2022-10-18T23:05:52.524Z,99242.72
2022-10-18T23:10:56.800Z,99250.16
2022-10-18T23:16:04.543Z,99247.78
2022-10-18T23:21:12.504Z,99252.25
2022-10-18T23:26:16.361Z,99249.78
2022-10-18T23:31:22.016Z,99250.56
2022-10-18T23:36:24.838Z,99254.16
2022-10-18T23:41:27.184Z,99257.38
2022-10-18T23:46:29.126Z,99253.91
2022-10-18T23:51:31.048Z,99254.28
2022-10-18T23:56:32.967Z,99258.09
